sensor_id;sensor_type;location;lat;lon;timestamp;P1;durP1;ratioP1;P2;durP2;ratioP2
2998;SDS011;1509;51.964;7.628;2024-02-23T00:00:00;1.07;;;0.70;;
2998;SDS011;1509;51.964;7.628;2024-02-23T00:02:30;1.00;;;0.70;;
2998;SDS011;1509;51.964;7.628;2024-02-23T00:04:56;2.07;;;0.80;;
2998;SDS011;1509;51.964;7.628;2024-02-23T00:07:22;1.87;;;0.80;;
2998;SDS011;1509;51.964;7.628;2024-02-23T00:09:47;1.10;;;0.70;;
2998;SDS011;1509;51.964;7.628;2024-02-23T00:12:13;2.27;;;0.90;;
2998;SDS011;1509;51.964;7.628;2024-02-23T00:14:39;1.10;;;0.70;;
2998;SDS011;1509;51.964;7.628;2024-02-23T00:17:05;1.50;;;0.90;;
2998;SDS011;1509;51.964;7.628;2024-02-23T00:19:30;1.83;;;1.20;;
2998;SDS011;1509;51.964;7.628;2024-02-23T00:21:56;1.20;;;1.00;;
2998;SDS011;1509;51.964;7.628;2024-02-23T00:24:24;1.20;;;1.10;;
2998;SDS011;1509;51.964;7.628;2024-02-23T00:26:50;1.13;;;1.03;;
2998;SDS011;1509;51.964;7.628;2024-02-23T00:29:16;2.03;;;0.93;;
2998;SDS011;1509;51.964;7.628;2024-02-23T00:31:42;2.23;;;0.83;;
2998;SDS011;1509;51.964;7.628;2024-02-23T00:34:10;1.23;;;0.83;;
2998;SDS011;1509;51.964;7.628;2024-02-23T00:36:38;1.30;;;0.83;;
2998;SDS011;1509;51.964;7.628;2024-02-23T00:39:04;1.93;;;1.00;;
2998;SDS011;1509;51.964;7.628;2024-02-23T00:41:30;1.00;;;0.90;;
2998;SDS011;1509;51.964;7.628;2024-02-23T00:43:55;1.00;;;0.80;;
2998;SDS011;1509;51.964;7.628;2024-02-23T00:46:21;0.90;;;0.70;;
2998;SDS011;1509;51.964;7.628;2024-02-23T00:48:46;1.27;;;0.97;;
2998;SDS011;1509;51.964;7.628;2024-02-23T00:51:12;0.97;;;0.70;;
2998;SDS011;1509;51.964;7.628;2024-02-23T00:53:38;1.00;;;0.80;;
2998;SDS011;1509;51.964;7.628;2024-02-23T00:56:03;1.70;;;0.93;;
2998;SDS011;1509;51.964;7.628;2024-02-23T00:58:29;1.30;;;1.00;;
2998;SDS011;1509;51.964;7.628;2024-02-23T01:00:55;1.00;;;0.90;;
2998;SDS011;1509;51.964;7.628;2024-02-23T01:03:20;0.90;;;0.70;;
2998;SDS011;1509;51.964;7.628;2024-02-23T01:05:47;1.33;;;0.80;;
2998;SDS011;1509;51.964;7.628;2024-02-23T01:08:12;1.80;;;1.23;;
2998;SDS011;1509;51.964;7.628;2024-02-23T01:10:38;1.13;;;1.00;;
2998;SDS011;1509;51.964;7.628;2024-02-23T01:13:03;2.83;;;1.33;;
2998;SDS011;1509;51.964;7.628;2024-02-23T01:15:30;1.80;;;1.13;;
2998;SDS011;1509;51.964;7.628;2024-02-23T01:17:55;1.40;;;1.10;;
2998;SDS011;1509;51.964;7.628;2024-02-23T01:20:21;2.33;;;1.40;;
2998;SDS011;1509;51.964;7.628;2024-02-23T01:22:47;1.70;;;1.20;;
2998;SDS011;1509;51.964;7.628;2024-02-23T01:25:13;1.93;;;1.00;;
2998;SDS011;1509;51.964;7.628;2024-02-23T01:27:40;3.30;;;1.47;;
2998;SDS011;1509;51.964;7.628;2024-02-23T01:30:06;1.93;;;0.90;;
2998;SDS011;1509;51.964;7.628;2024-02-23T01:32:33;1.67;;;0.90;;
2998;SDS011;1509;51.964;7.628;2024-02-23T01:34:58;1.77;;;1.30;;
2998;SDS011;1509;51.964;7.628;2024-02-23T01:37:24;1.13;;;1.03;;
2998;SDS011;1509;51.964;7.628;2024-02-23T01:39:49;1.33;;;1.00;;
2998;SDS011;1509;51.964;7.628;2024-02-23T01:42:15;2.73;;;1.60;;
2998;SDS011;1509;51.964;7.628;2024-02-23T01:44:40;1.20;;;1.10;;
2998;SDS011;1509;51.964;7.628;2024-02-23T01:47:06;3.67;;;1.63;;
2998;SDS011;1509;51.964;7.628;2024-02-23T01:49:32;2.53;;;1.77;;
2998;SDS011;1509;51.964;7.628;2024-02-23T01:52:00;1.70;;;1.30;;
2998;SDS011;1509;51.964;7.628;2024-02-23T01:54:25;1.90;;;1.50;;
2998;SDS011;1509;51.964;7.628;2024-02-23T01:56:53;2.10;;;1.57;;
2998;SDS011;1509;51.964;7.628;2024-02-23T01:59:21;2.67;;;1.70;;
2998;SDS011;1509;51.964;7.628;2024-02-23T02:01:48;2.83;;;2.00;;
2998;SDS011;1509;51.964;7.628;2024-02-23T02:04:14;3.07;;;2.07;;
2998;SDS011;1509;51.964;7.628;2024-02-23T02:06:42;2.97;;;2.50;;
2998;SDS011;1509;51.964;7.628;2024-02-23T02:09:08;2.50;;;1.90;;
2998;SDS011;1509;51.964;7.628;2024-02-23T02:11:33;3.07;;;2.53;;
2998;SDS011;1509;51.964;7.628;2024-02-23T02:13:59;4.23;;;2.20;;
2998;SDS011;1509;51.964;7.628;2024-02-23T02:16:24;3.80;;;2.30;;
2998;SDS011;1509;51.964;7.628;2024-02-23T02:18:50;3.13;;;2.37;;
2998;SDS011;1509;51.964;7.628;2024-02-23T02:21:16;4.57;;;3.07;;
2998;SDS011;1509;51.964;7.628;2024-02-23T02:23:42;3.30;;;2.20;;
2998;SDS011;1509;51.964;7.628;2024-02-23T02:26:07;3.97;;;2.80;;
2998;SDS011;1509;51.964;7.628;2024-02-23T02:28:33;2.90;;;2.30;;
2998;SDS011;1509;51.964;7.628;2024-02-23T02:30:59;3.60;;;2.50;;
2998;SDS011;1509;51.964;7.628;2024-02-23T02:33:25;2.80;;;2.33;;
2998;SDS011;1509;51.964;7.628;2024-02-23T02:35:50;3.17;;;2.50;;
2998;SDS011;1509;51.964;7.628;2024-02-23T02:38:16;7.67;;;2.43;;
2998;SDS011;1509;51.964;7.628;2024-02-23T02:40:42;4.70;;;2.37;;
2998;SDS011;1509;51.964;7.628;2024-02-23T02:43:07;2.53;;;2.27;;
2998;SDS011;1509;51.964;7.628;2024-02-23T02:45:36;2.53;;;1.83;;
2998;SDS011;1509;51.964;7.628;2024-02-23T02:48:10;2.10;;;1.77;;
2998;SDS011;1509;51.964;7.628;2024-02-23T02:50:35;8.00;;;2.07;;
2998;SDS011;1509;51.964;7.628;2024-02-23T02:53:01;3.20;;;1.90;;
2998;SDS011;1509;51.964;7.628;2024-02-23T02:55:26;4.70;;;1.80;;
2998;SDS011;1509;51.964;7.628;2024-02-23T02:57:52;4.97;;;1.90;;
2998;SDS011;1509;51.964;7.628;2024-02-23T03:00:18;3.50;;;2.03;;
2998;SDS011;1509;51.964;7.628;2024-02-23T03:02:43;3.10;;;1.83;;
2998;SDS011;1509;51.964;7.628;2024-02-23T03:05:09;1.83;;;1.33;;
2998;SDS011;1509;51.964;7.628;2024-02-23T03:07:34;4.23;;;1.87;;
2998;SDS011;1509;51.964;7.628;2024-02-23T03:10:00;4.27;;;1.70;;
2998;SDS011;1509;51.964;7.628;2024-02-23T03:12:26;1.70;;;1.50;;
2998;SDS011;1509;51.964;7.628;2024-02-23T03:14:51;4.30;;;1.70;;
2998;SDS011;1509;51.964;7.628;2024-02-23T03:17:17;3.60;;;2.07;;
2998;SDS011;1509;51.964;7.628;2024-02-23T03:19:42;3.20;;;1.70;;
2998;SDS011;1509;51.964;7.628;2024-02-23T03:22:08;5.03;;;2.00;;
2998;SDS011;1509;51.964;7.628;2024-02-23T03:24:34;1.20;;;1.10;;
2998;SDS011;1509;51.964;7.628;2024-02-23T03:26:59;6.63;;;1.73;;
2998;SDS011;1509;51.964;7.628;2024-02-23T03:29:25;2.13;;;1.23;;
2998;SDS011;1509;51.964;7.628;2024-02-23T03:31:54;3.93;;;1.80;;
2998;SDS011;1509;51.964;7.628;2024-02-23T03:34:23;8.10;;;2.70;;
2998;SDS011;1509;51.964;7.628;2024-02-23T03:36:48;6.83;;;1.80;;
2998;SDS011;1509;51.964;7.628;2024-02-23T03:39:14;2.53;;;1.40;;
2998;SDS011;1509;51.964;7.628;2024-02-23T03:41:40;4.40;;;1.57;;
2998;SDS011;1509;51.964;7.628;2024-02-23T03:44:05;4.07;;;1.40;;
2998;SDS011;1509;51.964;7.628;2024-02-23T03:46:31;2.93;;;1.37;;
2998;SDS011;1509;51.964;7.628;2024-02-23T03:48:57;3.17;;;1.60;;
2998;SDS011;1509;51.964;7.628;2024-02-23T03:51:23;3.30;;;1.50;;
2998;SDS011;1509;51.964;7.628;2024-02-23T03:53:49;4.87;;;1.90;;
2998;SDS011;1509;51.964;7.628;2024-02-23T03:56:14;5.37;;;1.90;;
2998;SDS011;1509;51.964;7.628;2024-02-23T03:58:40;2.13;;;1.50;;
2998;SDS011;1509;51.964;7.628;2024-02-23T04:01:06;2.70;;;1.73;;
2998;SDS011;1509;51.964;7.628;2024-02-23T04:03:31;3.37;;;1.83;;
2998;SDS011;1509;51.964;7.628;2024-02-23T04:05:57;3.03;;;1.90;;
2998;SDS011;1509;51.964;7.628;2024-02-23T04:08:23;4.47;;;1.73;;
2998;SDS011;1509;51.964;7.628;2024-02-23T04:10:48;3.07;;;1.73;;
2998;SDS011;1509;51.964;7.628;2024-02-23T04:13:14;3.17;;;1.77;;
2998;SDS011;1509;51.964;7.628;2024-02-23T04:15:43;5.57;;;2.07;;
2998;SDS011;1509;51.964;7.628;2024-02-23T04:18:09;3.87;;;2.37;;
2998;SDS011;1509;51.964;7.628;2024-02-23T04:20:34;1.70;;;1.60;;
2998;SDS011;1509;51.964;7.628;2024-02-23T04:23:00;4.00;;;1.83;;
2998;SDS011;1509;51.964;7.628;2024-02-23T04:25:26;6.83;;;1.50;;
2998;SDS011;1509;51.964;7.628;2024-02-23T04:27:51;3.20;;;1.90;;
2998;SDS011;1509;51.964;7.628;2024-02-23T04:30:17;3.17;;;1.70;;
2998;SDS011;1509;51.964;7.628;2024-02-23T04:32:43;3.00;;;1.67;;
2998;SDS011;1509;51.964;7.628;2024-02-23T04:35:09;2.23;;;1.50;;
2998;SDS011;1509;51.964;7.628;2024-02-23T04:37:35;2.07;;;1.67;;
2998;SDS011;1509;51.964;7.628;2024-02-23T04:40:01;2.77;;;1.80;;
2998;SDS011;1509;51.964;7.628;2024-02-23T04:42:26;3.07;;;1.70;;
2998;SDS011;1509;51.964;7.628;2024-02-23T04:44:52;3.50;;;1.63;;
2998;SDS011;1509;51.964;7.628;2024-02-23T04:47:20;7.30;;;2.33;;
2998;SDS011;1509;51.964;7.628;2024-02-23T04:49:45;3.03;;;2.20;;
2998;SDS011;1509;51.964;7.628;2024-02-23T04:52:11;5.30;;;2.10;;
2998;SDS011;1509;51.964;7.628;2024-02-23T04:54:37;5.90;;;2.43;;
2998;SDS011;1509;51.964;7.628;2024-02-23T04:57:02;2.43;;;2.20;;
2998;SDS011;1509;51.964;7.628;2024-02-23T04:59:28;3.00;;;2.00;;
2998;SDS011;1509;51.964;7.628;2024-02-23T05:01:55;3.23;;;2.00;;
2998;SDS011;1509;51.964;7.628;2024-02-23T05:04:20;3.20;;;2.30;;
2998;SDS011;1509;51.964;7.628;2024-02-23T05:06:46;3.17;;;2.00;;
2998;SDS011;1509;51.964;7.628;2024-02-23T05:09:12;2.93;;;2.00;;
2998;SDS011;1509;51.964;7.628;2024-02-23T05:11:38;4.93;;;3.07;;
2998;SDS011;1509;51.964;7.628;2024-02-23T05:14:04;2.87;;;1.73;;
2998;SDS011;1509;51.964;7.628;2024-02-23T05:16:29;3.03;;;1.60;;
2998;SDS011;1509;51.964;7.628;2024-02-23T05:18:55;3.20;;;1.60;;
2998;SDS011;1509;51.964;7.628;2024-02-23T05:21:21;3.80;;;2.43;;
2998;SDS011;1509;51.964;7.628;2024-02-23T05:23:46;4.70;;;1.63;;
2998;SDS011;1509;51.964;7.628;2024-02-23T05:26:12;2.77;;;1.77;;
2998;SDS011;1509;51.964;7.628;2024-02-23T05:28:38;3.83;;;1.93;;
2998;SDS011;1509;51.964;7.628;2024-02-23T05:31:03;4.33;;;1.60;;
2998;SDS011;1509;51.964;7.628;2024-02-23T05:33:29;5.07;;;2.57;;
2998;SDS011;1509;51.964;7.628;2024-02-23T05:35:55;2.83;;;1.70;;
2998;SDS011;1509;51.964;7.628;2024-02-23T05:38:21;2.23;;;1.23;;
2998;SDS011;1509;51.964;7.628;2024-02-23T05:40:46;2.40;;;1.40;;
2998;SDS011;1509;51.964;7.628;2024-02-23T05:43:13;4.30;;;1.80;;
2998;SDS011;1509;51.964;7.628;2024-02-23T05:45:39;3.10;;;1.63;;
2998;SDS011;1509;51.964;7.628;2024-02-23T05:48:05;1.63;;;1.23;;
2998;SDS011;1509;51.964;7.628;2024-02-23T05:50:31;1.43;;;1.23;;
2998;SDS011;1509;51.964;7.628;2024-02-23T05:52:57;3.33;;;1.10;;
2998;SDS011;1509;51.964;7.628;2024-02-23T05:55:23;5.13;;;1.40;;
2998;SDS011;1509;51.964;7.628;2024-02-23T05:57:49;1.47;;;1.13;;
2998;SDS011;1509;51.964;7.628;2024-02-23T06:00:15;1.83;;;1.10;;
2998;SDS011;1509;51.964;7.628;2024-02-23T06:02:44;1.53;;;1.33;;
2998;SDS011;1509;51.964;7.628;2024-02-23T06:05:11;4.20;;;1.87;;
2998;SDS011;1509;51.964;7.628;2024-02-23T06:07:37;2.70;;;1.27;;
2998;SDS011;1509;51.964;7.628;2024-02-23T06:10:03;3.30;;;1.40;;
2998;SDS011;1509;51.964;7.628;2024-02-23T06:12:30;1.70;;;1.10;;
2998;SDS011;1509;51.964;7.628;2024-02-23T06:14:55;2.27;;;2.07;;
2998;SDS011;1509;51.964;7.628;2024-02-23T06:17:22;2.53;;;1.10;;
2998;SDS011;1509;51.964;7.628;2024-02-23T06:19:48;6.23;;;1.10;;
2998;SDS011;1509;51.964;7.628;2024-02-23T06:22:14;3.40;;;1.63;;
2998;SDS011;1509;51.964;7.628;2024-02-23T06:24:42;3.30;;;1.60;;
2998;SDS011;1509;51.964;7.628;2024-02-23T06:27:07;2.60;;;1.23;;
2998;SDS011;1509;51.964;7.628;2024-02-23T06:29:33;3.07;;;1.30;;
2998;SDS011;1509;51.964;7.628;2024-02-23T06:31:59;1.83;;;1.30;;
2998;SDS011;1509;51.964;7.628;2024-02-23T06:34:26;5.80;;;1.50;;
2998;SDS011;1509;51.964;7.628;2024-02-23T06:36:52;12.73;;;1.20;;
2998;SDS011;1509;51.964;7.628;2024-02-23T06:39:17;3.53;;;1.27;;
2998;SDS011;1509;51.964;7.628;2024-02-23T06:41:43;4.03;;;1.23;;
2998;SDS011;1509;51.964;7.628;2024-02-23T06:44:09;3.40;;;1.20;;
2998;SDS011;1509;51.964;7.628;2024-02-23T06:46:34;2.23;;;1.40;;
2998;SDS011;1509;51.964;7.628;2024-02-23T06:49:00;3.37;;;1.10;;
2998;SDS011;1509;51.964;7.628;2024-02-23T06:51:25;2.20;;;1.23;;
2998;SDS011;1509;51.964;7.628;2024-02-23T06:53:51;3.57;;;0.90;;
2998;SDS011;1509;51.964;7.628;2024-02-23T06:56:17;4.30;;;1.17;;
2998;SDS011;1509;51.964;7.628;2024-02-23T06:58:42;3.20;;;1.30;;
2998;SDS011;1509;51.964;7.628;2024-02-23T07:01:08;4.10;;;1.47;;
2998;SDS011;1509;51.964;7.628;2024-02-23T07:03:37;2.40;;;1.10;;
2998;SDS011;1509;51.964;7.628;2024-02-23T07:06:04;4.60;;;1.33;;
2998;SDS011;1509;51.964;7.628;2024-02-23T07:08:29;3.57;;;1.10;;
2998;SDS011;1509;51.964;7.628;2024-02-23T07:10:55;7.70;;;1.37;;
2998;SDS011;1509;51.964;7.628;2024-02-23T07:13:21;8.03;;;1.17;;
2998;SDS011;1509;51.964;7.628;2024-02-23T07:15:46;4.03;;;1.07;;
2998;SDS011;1509;51.964;7.628;2024-02-23T07:18:12;2.03;;;0.93;;
2998;SDS011;1509;51.964;7.628;2024-02-23T07:20:38;3.10;;;1.60;;
2998;SDS011;1509;51.964;7.628;2024-02-23T07:23:04;2.77;;;1.70;;
2998;SDS011;1509;51.964;7.628;2024-02-23T07:25:30;2.30;;;1.27;;
2998;SDS011;1509;51.964;7.628;2024-02-23T07:27:56;4.50;;;1.23;;
2998;SDS011;1509;51.964;7.628;2024-02-23T07:30:21;7.60;;;1.13;;
2998;SDS011;1509;51.964;7.628;2024-02-23T07:32:47;4.57;;;1.10;;
2998;SDS011;1509;51.964;7.628;2024-02-23T07:35:13;5.63;;;1.17;;
2998;SDS011;1509;51.964;7.628;2024-02-23T07:37:39;2.83;;;0.83;;
2998;SDS011;1509;51.964;7.628;2024-02-23T07:40:05;1.90;;;1.40;;
2998;SDS011;1509;51.964;7.628;2024-02-23T07:42:31;2.53;;;1.30;;
2998;SDS011;1509;51.964;7.628;2024-02-23T07:44:57;4.00;;;1.30;;
2998;SDS011;1509;51.964;7.628;2024-02-23T07:47:23;2.23;;;1.47;;
2998;SDS011;1509;51.964;7.628;2024-02-23T07:49:51;2.33;;;1.30;;
2998;SDS011;1509;51.964;7.628;2024-02-23T07:52:17;3.20;;;1.40;;
2998;SDS011;1509;51.964;7.628;2024-02-23T07:54:45;4.17;;;1.80;;
2998;SDS011;1509;51.964;7.628;2024-02-23T07:57:11;2.50;;;1.00;;
2998;SDS011;1509;51.964;7.628;2024-02-23T07:59:38;3.70;;;1.27;;
2998;SDS011;1509;51.964;7.628;2024-02-23T08:02:06;3.77;;;1.10;;
2998;SDS011;1509;51.964;7.628;2024-02-23T08:04:32;2.17;;;1.07;;
2998;SDS011;1509;51.964;7.628;2024-02-23T08:06:58;3.33;;;1.37;;
2998;SDS011;1509;51.964;7.628;2024-02-23T08:09:23;4.57;;;1.50;;
2998;SDS011;1509;51.964;7.628;2024-02-23T08:11:49;2.07;;;1.03;;
2998;SDS011;1509;51.964;7.628;2024-02-23T08:14:16;1.97;;;1.00;;
2998;SDS011;1509;51.964;7.628;2024-02-23T08:16:41;4.47;;;1.53;;
2998;SDS011;1509;51.964;7.628;2024-02-23T08:19:07;4.00;;;1.50;;
2998;SDS011;1509;51.964;7.628;2024-02-23T08:21:33;2.10;;;1.20;;
2998;SDS011;1509;51.964;7.628;2024-02-23T08:23:58;4.00;;;1.60;;
2998;SDS011;1509;51.964;7.628;2024-02-23T08:26:24;1.93;;;1.23;;
2998;SDS011;1509;51.964;7.628;2024-02-23T08:28:50;3.60;;;1.10;;
2998;SDS011;1509;51.964;7.628;2024-02-23T08:31:15;3.97;;;1.33;;
2998;SDS011;1509;51.964;7.628;2024-02-23T08:33:41;3.37;;;1.00;;
2998;SDS011;1509;51.964;7.628;2024-02-23T08:36:07;5.17;;;1.47;;
2998;SDS011;1509;51.964;7.628;2024-02-23T08:38:33;6.00;;;1.10;;
2998;SDS011;1509;51.964;7.628;2024-02-23T08:40:58;5.73;;;1.10;;
2998;SDS011;1509;51.964;7.628;2024-02-23T08:43:26;3.80;;;1.17;;
2998;SDS011;1509;51.964;7.628;2024-02-23T08:45:55;4.60;;;1.33;;
2998;SDS011;1509;51.964;7.628;2024-02-23T08:48:20;5.53;;;1.37;;
2998;SDS011;1509;51.964;7.628;2024-02-23T08:50:46;3.63;;;1.60;;
2998;SDS011;1509;51.964;7.628;2024-02-23T08:53:12;1.90;;;1.10;;
2998;SDS011;1509;51.964;7.628;2024-02-23T08:55:37;3.40;;;1.50;;
2998;SDS011;1509;51.964;7.628;2024-02-23T08:58:03;1.63;;;0.80;;
2998;SDS011;1509;51.964;7.628;2024-02-23T09:00:33;1.87;;;1.30;;
2998;SDS011;1509;51.964;7.628;2024-02-23T09:02:58;2.00;;;1.27;;
2998;SDS011;1509;51.964;7.628;2024-02-23T09:05:24;6.60;;;1.50;;
2998;SDS011;1509;51.964;7.628;2024-02-23T09:07:50;3.83;;;1.40;;
2998;SDS011;1509;51.964;7.628;2024-02-23T09:10:16;3.53;;;1.00;;
2998;SDS011;1509;51.964;7.628;2024-02-23T09:12:43;1.70;;;1.10;;
2998;SDS011;1509;51.964;7.628;2024-02-23T09:15:08;2.67;;;1.13;;
2998;SDS011;1509;51.964;7.628;2024-02-23T09:17:37;1.60;;;1.10;;
2998;SDS011;1509;51.964;7.628;2024-02-23T09:20:02;4.70;;;1.40;;
2998;SDS011;1509;51.964;7.628;2024-02-23T09:22:28;3.70;;;1.10;;
2998;SDS011;1509;51.964;7.628;2024-02-23T09:24:54;3.40;;;1.20;;
2998;SDS011;1509;51.964;7.628;2024-02-23T09:27:21;2.63;;;1.77;;
2998;SDS011;1509;51.964;7.628;2024-02-23T09:29:46;2.47;;;1.50;;
2998;SDS011;1509;51.964;7.628;2024-02-23T09:32:12;2.50;;;1.13;;
2998;SDS011;1509;51.964;7.628;2024-02-23T09:34:38;1.83;;;1.47;;
2998;SDS011;1509;51.964;7.628;2024-02-23T09:37:03;4.40;;;1.60;;
2998;SDS011;1509;51.964;7.628;2024-02-23T09:39:29;2.20;;;1.17;;
2998;SDS011;1509;51.964;7.628;2024-02-23T09:41:55;2.33;;;1.20;;
2998;SDS011;1509;51.964;7.628;2024-02-23T09:44:25;4.27;;;1.33;;
2998;SDS011;1509;51.964;7.628;2024-02-23T09:46:57;6.73;;;1.40;;
2998;SDS011;1509;51.964;7.628;2024-02-23T09:49:24;2.97;;;1.30;;
2998;SDS011;1509;51.964;7.628;2024-02-23T09:51:50;2.60;;;1.30;;
2998;SDS011;1509;51.964;7.628;2024-02-23T09:54:16;2.17;;;1.40;;
2998;SDS011;1509;51.964;7.628;2024-02-23T09:56:42;3.13;;;1.40;;
2998;SDS011;1509;51.964;7.628;2024-02-23T09:59:08;2.60;;;1.23;;
2998;SDS011;1509;51.964;7.628;2024-02-23T10:01:34;3.97;;;1.40;;
2998;SDS011;1509;51.964;7.628;2024-02-23T10:04:01;3.00;;;1.47;;
2998;SDS011;1509;51.964;7.628;2024-02-23T10:06:29;5.43;;;1.63;;
2998;SDS011;1509;51.964;7.628;2024-02-23T10:08:55;2.43;;;1.10;;
2998;SDS011;1509;51.964;7.628;2024-02-23T10:11:21;2.53;;;1.40;;
2998;SDS011;1509;51.964;7.628;2024-02-23T10:13:47;4.90;;;1.20;;
2998;SDS011;1509;51.964;7.628;2024-02-23T10:16:22;2.10;;;1.73;;
2998;SDS011;1509;51.964;7.628;2024-02-23T10:18:48;2.93;;;1.20;;
2998;SDS011;1509;51.964;7.628;2024-02-23T10:21:16;3.57;;;1.60;;
2998;SDS011;1509;51.964;7.628;2024-02-23T10:23:45;4.53;;;1.40;;
2998;SDS011;1509;51.964;7.628;2024-02-23T10:26:12;3.53;;;1.50;;
2998;SDS011;1509;51.964;7.628;2024-02-23T10:28:38;3.10;;;1.60;;
2998;SDS011;1509;51.964;7.628;2024-02-23T10:31:04;4.33;;;1.70;;
2998;SDS011;1509;51.964;7.628;2024-02-23T10:33:32;2.80;;;1.00;;
2998;SDS011;1509;51.964;7.628;2024-02-23T10:36:00;2.47;;;1.10;;
2998;SDS011;1509;51.964;7.628;2024-02-23T10:38:31;3.00;;;1.43;;
2998;SDS011;1509;51.964;7.628;2024-02-23T10:40:57;9.17;;;1.20;;
2998;SDS011;1509;51.964;7.628;2024-02-23T10:43:29;2.93;;;1.20;;
2998;SDS011;1509;51.964;7.628;2024-02-23T10:45:59;2.40;;;1.40;;
2998;SDS011;1509;51.964;7.628;2024-02-23T10:48:28;3.00;;;1.10;;
2998;SDS011;1509;51.964;7.628;2024-02-23T10:50:54;3.07;;;1.40;;
2998;SDS011;1509;51.964;7.628;2024-02-23T10:53:21;3.27;;;1.20;;
2998;SDS011;1509;51.964;7.628;2024-02-23T10:55:51;2.23;;;1.27;;
2998;SDS011;1509;51.964;7.628;2024-02-23T10:58:21;3.10;;;1.10;;
2998;SDS011;1509;51.964;7.628;2024-02-23T11:00:47;2.90;;;1.50;;
2998;SDS011;1509;51.964;7.628;2024-02-23T11:03:13;4.87;;;1.60;;
2998;SDS011;1509;51.964;7.628;2024-02-23T11:05:40;3.17;;;2.33;;
2998;SDS011;1509;51.964;7.628;2024-02-23T11:08:05;5.03;;;1.80;;
2998;SDS011;1509;51.964;7.628;2024-02-23T11:10:40;3.00;;;1.50;;
2998;SDS011;1509;51.964;7.628;2024-02-23T11:13:07;5.00;;;2.60;;
2998;SDS011;1509;51.964;7.628;2024-02-23T11:15:33;4.93;;;2.20;;
2998;SDS011;1509;51.964;7.628;2024-02-23T11:18:04;4.40;;;2.00;;
2998;SDS011;1509;51.964;7.628;2024-02-23T11:20:55;2.90;;;1.10;;
2998;SDS011;1509;51.964;7.628;2024-02-23T11:23:24;2.80;;;1.40;;
2998;SDS011;1509;51.964;7.628;2024-02-23T11:28:48;3.53;;;1.67;;
2998;SDS011;1509;51.964;7.628;2024-02-23T11:31:15;2.87;;;1.43;;
2998;SDS011;1509;51.964;7.628;2024-02-23T11:33:51;5.70;;;1.90;;
2998;SDS011;1509;51.964;7.628;2024-02-23T11:36:31;5.77;;;2.07;;
2998;SDS011;1509;51.964;7.628;2024-02-23T11:38:58;3.23;;;1.40;;
2998;SDS011;1509;51.964;7.628;2024-02-23T11:41:25;2.53;;;1.53;;
2998;SDS011;1509;51.964;7.628;2024-02-23T11:43:52;2.00;;;1.53;;
2998;SDS011;1509;51.964;7.628;2024-02-23T11:46:19;3.13;;;1.50;;
2998;SDS011;1509;51.964;7.628;2024-02-23T11:48:45;3.40;;;1.23;;
2998;SDS011;1509;51.964;7.628;2024-02-23T11:51:19;2.37;;;1.43;;
2998;SDS011;1509;51.964;7.628;2024-02-23T11:53:46;3.57;;;1.50;;
2998;SDS011;1509;51.964;7.628;2024-02-23T11:56:12;5.23;;;1.63;;
2998;SDS011;1509;51.964;7.628;2024-02-23T11:58:39;2.83;;;1.40;;
2998;SDS011;1509;51.964;7.628;2024-02-23T12:01:05;2.93;;;1.30;;
2998;SDS011;1509;51.964;7.628;2024-02-23T12:03:32;3.20;;;1.50;;
2998;SDS011;1509;51.964;7.628;2024-02-23T12:05:58;3.33;;;1.37;;
2998;SDS011;1509;51.964;7.628;2024-02-23T12:08:28;2.10;;;1.10;;
2998;SDS011;1509;51.964;7.628;2024-02-23T12:10:56;1.57;;;1.00;;
2998;SDS011;1509;51.964;7.628;2024-02-23T12:13:22;2.20;;;1.33;;
2998;SDS011;1509;51.964;7.628;2024-02-23T12:15:48;3.93;;;1.00;;
2998;SDS011;1509;51.964;7.628;2024-02-23T12:18:17;1.87;;;1.53;;
2998;SDS011;1509;51.964;7.628;2024-02-23T12:20:47;4.73;;;1.90;;
2998;SDS011;1509;51.964;7.628;2024-02-23T12:23:12;2.70;;;1.90;;
2998;SDS011;1509;51.964;7.628;2024-02-23T12:25:38;3.20;;;1.30;;
2998;SDS011;1509;51.964;7.628;2024-02-23T12:28:18;2.33;;;1.10;;
2998;SDS011;1509;51.964;7.628;2024-02-23T12:30:43;2.90;;;1.63;;
2998;SDS011;1509;51.964;7.628;2024-02-23T12:33:11;4.50;;;1.50;;
2998;SDS011;1509;51.964;7.628;2024-02-23T12:35:40;1.97;;;1.13;;
2998;SDS011;1509;51.964;7.628;2024-02-23T12:38:08;2.20;;;1.20;;
2998;SDS011;1509;51.964;7.628;2024-02-23T12:40:34;2.53;;;1.37;;
2998;SDS011;1509;51.964;7.628;2024-02-23T12:43:00;3.60;;;1.70;;
2998;SDS011;1509;51.964;7.628;2024-02-23T12:45:25;5.03;;;1.33;;
2998;SDS011;1509;51.964;7.628;2024-02-23T12:47:51;3.50;;;1.70;;
2998;SDS011;1509;51.964;7.628;2024-02-23T12:50:16;1.77;;;1.07;;
2998;SDS011;1509;51.964;7.628;2024-02-23T12:52:42;3.60;;;1.30;;
2998;SDS011;1509;51.964;7.628;2024-02-23T12:55:08;2.70;;;1.10;;
2998;SDS011;1509;51.964;7.628;2024-02-23T12:57:34;3.93;;;1.70;;
2998;SDS011;1509;51.964;7.628;2024-02-23T12:59:59;2.47;;;1.20;;
2998;SDS011;1509;51.964;7.628;2024-02-23T13:02:25;5.40;;;1.30;;
2998;SDS011;1509;51.964;7.628;2024-02-23T13:04:50;1.97;;;1.20;;
2998;SDS011;1509;51.964;7.628;2024-02-23T13:07:16;2.83;;;1.60;;
2998;SDS011;1509;51.964;7.628;2024-02-23T13:09:42;3.17;;;1.40;;
2998;SDS011;1509;51.964;7.628;2024-02-23T13:12:08;1.50;;;1.10;;
2998;SDS011;1509;51.964;7.628;2024-02-23T13:14:33;2.47;;;1.20;;
2998;SDS011;1509;51.964;7.628;2024-02-23T13:16:59;2.33;;;1.40;;
2998;SDS011;1509;51.964;7.628;2024-02-23T13:19:25;2.70;;;1.90;;
2998;SDS011;1509;51.964;7.628;2024-02-23T13:21:50;3.13;;;1.50;;
2998;SDS011;1509;51.964;7.628;2024-02-23T13:24:16;6.60;;;1.70;;
2998;SDS011;1509;51.964;7.628;2024-02-23T13:26:42;6.63;;;1.60;;
2998;SDS011;1509;51.964;7.628;2024-02-23T13:29:07;2.80;;;1.50;;
2998;SDS011;1509;51.964;7.628;2024-02-23T13:31:33;2.30;;;1.53;;
2998;SDS011;1509;51.964;7.628;2024-02-23T13:33:59;2.27;;;1.20;;
2998;SDS011;1509;51.964;7.628;2024-02-23T13:36:24;2.73;;;1.23;;
2998;SDS011;1509;51.964;7.628;2024-02-23T13:38:50;5.43;;;1.40;;
2998;SDS011;1509;51.964;7.628;2024-02-23T13:41:16;4.77;;;1.20;;
2998;SDS011;1509;51.964;7.628;2024-02-23T13:43:42;1.83;;;1.30;;
2998;SDS011;1509;51.964;7.628;2024-02-23T13:46:08;2.13;;;1.40;;
2998;SDS011;1509;51.964;7.628;2024-02-23T13:48:35;1.97;;;1.60;;
2998;SDS011;1509;51.964;7.628;2024-02-23T13:51:01;3.13;;;1.40;;
2998;SDS011;1509;51.964;7.628;2024-02-23T13:53:29;3.40;;;1.33;;
2998;SDS011;1509;51.964;7.628;2024-02-23T13:55:56;3.23;;;1.27;;
2998;SDS011;1509;51.964;7.628;2024-02-23T13:58:21;3.63;;;1.10;;
2998;SDS011;1509;51.964;7.628;2024-02-23T14:00:47;2.13;;;1.00;;
2998;SDS011;1509;51.964;7.628;2024-02-23T14:03:16;2.13;;;1.27;;
2998;SDS011;1509;51.964;7.628;2024-02-23T14:05:48;2.37;;;1.27;;
2998;SDS011;1509;51.964;7.628;2024-02-23T14:08:13;1.93;;;0.90;;
2998;SDS011;1509;51.964;7.628;2024-02-23T14:10:39;3.30;;;1.50;;
2998;SDS011;1509;51.964;7.628;2024-02-23T14:13:05;3.53;;;1.10;;
2998;SDS011;1509;51.964;7.628;2024-02-23T14:15:31;3.30;;;1.23;;
2998;SDS011;1509;51.964;7.628;2024-02-23T14:17:57;3.83;;;1.53;;
2998;SDS011;1509;51.964;7.628;2024-02-23T14:20:23;1.97;;;1.20;;
2998;SDS011;1509;51.964;7.628;2024-02-23T14:22:53;5.33;;;1.23;;
2998;SDS011;1509;51.964;7.628;2024-02-23T14:25:18;3.17;;;1.97;;
2998;SDS011;1509;51.964;7.628;2024-02-23T14:27:44;2.43;;;1.23;;
2998;SDS011;1509;51.964;7.628;2024-02-23T14:30:12;2.80;;;1.30;;
2998;SDS011;1509;51.964;7.628;2024-02-23T14:32:38;2.60;;;1.40;;
2998;SDS011;1509;51.964;7.628;2024-02-23T14:35:07;1.57;;;0.90;;
2998;SDS011;1509;51.964;7.628;2024-02-23T14:37:33;2.27;;;1.50;;
2998;SDS011;1509;51.964;7.628;2024-02-23T14:39:58;3.33;;;2.17;;
2998;SDS011;1509;51.964;7.628;2024-02-23T14:42:24;3.80;;;1.80;;
2998;SDS011;1509;51.964;7.628;2024-02-23T14:44:50;3.53;;;1.67;;
2998;SDS011;1509;51.964;7.628;2024-02-23T14:47:15;1.93;;;1.40;;
2998;SDS011;1509;51.964;7.628;2024-02-23T14:49:41;2.37;;;1.50;;
2998;SDS011;1509;51.964;7.628;2024-02-23T14:52:07;6.47;;;1.50;;
2998;SDS011;1509;51.964;7.628;2024-02-23T14:54:33;2.87;;;1.17;;
2998;SDS011;1509;51.964;7.628;2024-02-23T14:56:59;1.67;;;1.10;;
2998;SDS011;1509;51.964;7.628;2024-02-23T14:59:24;2.13;;;1.20;;
2998;SDS011;1509;51.964;7.628;2024-02-23T15:01:50;4.60;;;1.97;;
2998;SDS011;1509;51.964;7.628;2024-02-23T15:04:16;5.30;;;1.97;;
2998;SDS011;1509;51.964;7.628;2024-02-23T15:06:41;3.07;;;1.50;;
2998;SDS011;1509;51.964;7.628;2024-02-23T15:09:07;3.80;;;1.50;;
2998;SDS011;1509;51.964;7.628;2024-02-23T15:11:33;3.53;;;1.83;;